Terminal Aerodrome Forecast
Issued by NWS

Home | Current Version | Previous Version | Graphics & Text | Print | Product List | Glossary Off
Versions: 1 2 3 4 5 6 7 8 9 10 11 12 13 14

000
FTUS43 KBIS 261304 AAA
TAFJMS
TAF AMD
KJMS 261304Z 2613/2712 24005KT P6SM SCT100
     FM261900 33008KT P6SM VCTS SCT060CB
      TEMPO 2620/2623 5SM -TSRA BKN050CB
     FM270100 28005KT P6SM SCT100=

USA.gov is the U.S. government's official web portal to all federal, state and local government web resources and services.